sensor_id;sensor_type;location;lat;lon;timestamp;P1;durP1;ratioP1;P2;durP2;ratioP2
51475;SDS011;37554;50.362;7.568;2023-03-01T00:01:05;5.05;;;4.20;;
51475;SDS011;37554;50.362;7.568;2023-03-01T00:03:41;4.80;;;4.00;;
51475;SDS011;37554;50.362;7.568;2023-03-01T00:06:07;6.88;;;4.35;;
51475;SDS011;37554;50.362;7.568;2023-03-01T00:08:33;5.88;;;3.95;;
51475;SDS011;37554;50.362;7.568;2023-03-01T00:11:00;4.82;;;3.97;;
51475;SDS011;37554;50.362;7.568;2023-03-01T00:13:30;6.82;;;3.95;;
51475;SDS011;37554;50.362;7.568;2023-03-01T00:15:55;6.85;;;4.10;;
51475;SDS011;37554;50.362;7.568;2023-03-01T00:18:21;4.47;;;3.92;;
51475;SDS011;37554;50.362;7.568;2023-03-01T00:20:53;4.43;;;3.90;;
51475;SDS011;37554;50.362;7.568;2023-03-01T00:25:46;5.32;;;4.05;;
51475;SDS011;37554;50.362;7.568;2023-03-01T00:28:12;4.72;;;3.83;;
51475;SDS011;37554;50.362;7.568;2023-03-01T00:30:38;5.35;;;3.88;;
51475;SDS011;37554;50.362;7.568;2023-03-01T00:33:03;4.65;;;4.20;;
51475;SDS011;37554;50.362;7.568;2023-03-01T00:35:29;4.68;;;3.83;;
51475;SDS011;37554;50.362;7.568;2023-03-01T00:37:57;5.80;;;3.90;;
51475;SDS011;37554;50.362;7.568;2023-03-01T00:40:23;5.38;;;4.22;;
51475;SDS011;37554;50.362;7.568;2023-03-01T00:42:49;4.47;;;3.97;;
51475;SDS011;37554;50.362;7.568;2023-03-01T00:45:15;4.72;;;3.85;;
51475;SDS011;37554;50.362;7.568;2023-03-01T00:47:41;4.47;;;3.97;;
51475;SDS011;37554;50.362;7.568;2023-03-01T00:50:07;4.57;;;4.15;;
51475;SDS011;37554;50.362;7.568;2023-03-01T00:52:33;5.82;;;4.22;;
51475;SDS011;37554;50.362;7.568;2023-03-01T00:54:59;5.25;;;4.18;;
51475;SDS011;37554;50.362;7.568;2023-03-01T00:57:24;4.43;;;3.90;;
51475;SDS011;37554;50.362;7.568;2023-03-01T00:59:50;4.03;;;3.53;;
51475;SDS011;37554;50.362;7.568;2023-03-01T01:02:17;4.50;;;3.80;;
51475;SDS011;37554;50.362;7.568;2023-03-01T01:04:43;4.70;;;4.03;;
51475;SDS011;37554;50.362;7.568;2023-03-01T01:07:09;5.65;;;4.20;;
51475;SDS011;37554;50.362;7.568;2023-03-01T01:09:35;4.45;;;3.83;;
51475;SDS011;37554;50.362;7.568;2023-03-01T01:12:01;4.45;;;4.05;;
51475;SDS011;37554;50.362;7.568;2023-03-01T01:14:27;4.45;;;3.65;;
51475;SDS011;37554;50.362;7.568;2023-03-01T01:16:53;4.70;;;3.90;;
51475;SDS011;37554;50.362;7.568;2023-03-01T01:19:18;5.63;;;4.18;;
51475;SDS011;37554;50.362;7.568;2023-03-01T01:21:44;5.65;;;4.18;;
51475;SDS011;37554;50.362;7.568;2023-03-01T01:24:10;5.93;;;4.85;;
51475;SDS011;37554;50.362;7.568;2023-03-01T01:26:36;3.92;;;3.45;;
51475;SDS011;37554;50.362;7.568;2023-03-01T01:29:03;7.40;;;4.35;;
51475;SDS011;37554;50.362;7.568;2023-03-01T01:31:30;6.25;;;4.15;;
51475;SDS011;37554;50.362;7.568;2023-03-01T01:33:57;4.40;;;4.00;;
51475;SDS011;37554;50.362;7.568;2023-03-01T01:36:24;4.63;;;4.18;;
51475;SDS011;37554;50.362;7.568;2023-03-01T01:38:50;4.90;;;3.83;;
51475;SDS011;37554;50.362;7.568;2023-03-01T01:41:15;4.43;;;4.03;;
51475;SDS011;37554;50.362;7.568;2023-03-01T01:43:46;6.88;;;4.18;;
51475;SDS011;37554;50.362;7.568;2023-03-01T01:48:46;4.93;;;4.05;;
51475;SDS011;37554;50.362;7.568;2023-03-01T01:51:20;4.50;;;4.07;;
51475;SDS011;37554;50.362;7.568;2023-03-01T01:53:53;4.50;;;4.03;;
51475;SDS011;37554;50.362;7.568;2023-03-01T01:56:23;4.38;;;3.60;;
51475;SDS011;37554;50.362;7.568;2023-03-01T01:58:50;4.47;;;3.80;;
51475;SDS011;37554;50.362;7.568;2023-03-01T02:01:16;4.78;;;4.22;;
51475;SDS011;37554;50.362;7.568;2023-03-01T02:03:42;4.40;;;4.00;;
51475;SDS011;37554;50.362;7.568;2023-03-01T02:06:12;4.90;;;3.83;;
51475;SDS011;37554;50.362;7.568;2023-03-01T02:08:47;4.45;;;4.05;;
51475;SDS011;37554;50.362;7.568;2023-03-01T02:11:15;5.70;;;4.75;;
51475;SDS011;37554;50.362;7.568;2023-03-01T02:13:43;5.68;;;4.40;;
51475;SDS011;37554;50.362;7.568;2023-03-01T02:16:12;4.72;;;3.85;;
51475;SDS011;37554;50.362;7.568;2023-03-01T02:18:40;5.72;;;4.13;;
51475;SDS011;37554;50.362;7.568;2023-03-01T02:23:52;5.68;;;4.30;;
51475;SDS011;37554;50.362;7.568;2023-03-01T02:26:21;6.72;;;4.45;;
51475;SDS011;37554;50.362;7.568;2023-03-01T02:28:53;4.30;;;3.72;;
51475;SDS011;37554;50.362;7.568;2023-03-01T02:31:19;6.18;;;4.55;;
51475;SDS011;37554;50.362;7.568;2023-03-01T02:34:05;5.43;;;4.03;;
51475;SDS011;37554;50.362;7.568;2023-03-01T02:36:37;4.03;;;3.63;;
51475;SDS011;37554;50.362;7.568;2023-03-01T02:39:05;4.40;;;4.00;;
51475;SDS011;37554;50.362;7.568;2023-03-01T02:41:35;5.32;;;4.18;;
51475;SDS011;37554;50.362;7.568;2023-03-01T02:44:02;4.72;;;3.90;;
51475;SDS011;37554;50.362;7.568;2023-03-01T02:46:29;4.57;;;4.13;;
51475;SDS011;37554;50.362;7.568;2023-03-01T02:48:56;4.97;;;4.10;;
51475;SDS011;37554;50.362;7.568;2023-03-01T02:54:08;4.28;;;3.88;;
51475;SDS011;37554;50.362;7.568;2023-03-01T02:56:39;5.60;;;4.10;;
51475;SDS011;37554;50.362;7.568;2023-03-01T02:59:05;4.53;;;3.97;;
51475;SDS011;37554;50.362;7.568;2023-03-01T03:01:32;7.15;;;4.35;;
51475;SDS011;37554;50.362;7.568;2023-03-01T03:04:04;5.65;;;4.03;;
51475;SDS011;37554;50.362;7.568;2023-03-01T03:06:31;4.95;;;3.65;;
51475;SDS011;37554;50.362;7.568;2023-03-01T03:08:57;5.18;;;4.25;;
51475;SDS011;37554;50.362;7.568;2023-03-01T03:11:23;4.72;;;4.05;;
51475;SDS011;37554;50.362;7.568;2023-03-01T03:13:48;5.07;;;3.97;;
51475;SDS011;37554;50.362;7.568;2023-03-01T03:16:14;4.25;;;3.63;;
51475;SDS011;37554;50.362;7.568;2023-03-01T03:18:40;5.30;;;3.83;;
51475;SDS011;37554;50.362;7.568;2023-03-01T03:21:08;4.65;;;3.80;;
51475;SDS011;37554;50.362;7.568;2023-03-01T03:23:35;4.78;;;4.30;;
51475;SDS011;37554;50.362;7.568;2023-03-01T03:26:01;6.55;;;4.07;;
51475;SDS011;37554;50.362;7.568;2023-03-01T03:28:29;4.38;;;3.78;;
51475;SDS011;37554;50.362;7.568;2023-03-01T03:30:55;4.63;;;4.22;;
51475;SDS011;37554;50.362;7.568;2023-03-01T03:33:21;5.60;;;4.18;;
51475;SDS011;37554;50.362;7.568;2023-03-01T03:35:48;4.80;;;4.07;;
51475;SDS011;37554;50.362;7.568;2023-03-01T03:38:15;4.65;;;4.00;;
51475;SDS011;37554;50.362;7.568;2023-03-01T03:40:46;4.82;;;3.92;;
51475;SDS011;37554;50.362;7.568;2023-03-01T03:43:17;6.10;;;4.43;;
51475;SDS011;37554;50.362;7.568;2023-03-01T03:45:45;4.50;;;3.78;;
51475;SDS011;37554;50.362;7.568;2023-03-01T03:48:11;5.47;;;3.85;;
51475;SDS011;37554;50.362;7.568;2023-03-01T03:50:38;6.15;;;3.80;;
51475;SDS011;37554;50.362;7.568;2023-03-01T03:53:06;5.18;;;4.00;;
51475;SDS011;37554;50.362;7.568;2023-03-01T03:55:34;4.88;;;4.45;;
51475;SDS011;37554;50.362;7.568;2023-03-01T03:58:01;5.85;;;4.13;;
51475;SDS011;37554;50.362;7.568;2023-03-01T04:00:31;6.28;;;4.20;;
51475;SDS011;37554;50.362;7.568;2023-03-01T04:03:01;5.50;;;4.03;;
51475;SDS011;37554;50.362;7.568;2023-03-01T04:05:27;6.25;;;4.30;;
51475;SDS011;37554;50.362;7.568;2023-03-01T04:07:54;13.20;;;4.10;;
51475;SDS011;37554;50.362;7.568;2023-03-01T04:10:26;7.38;;;4.43;;
51475;SDS011;37554;50.362;7.568;2023-03-01T04:12:52;5.30;;;4.03;;
51475;SDS011;37554;50.362;7.568;2023-03-01T04:15:21;6.47;;;4.50;;
51475;SDS011;37554;50.362;7.568;2023-03-01T04:17:49;6.43;;;4.40;;
51475;SDS011;37554;50.362;7.568;2023-03-01T04:20:17;5.15;;;4.03;;
51475;SDS011;37554;50.362;7.568;2023-03-01T04:22:51;4.97;;;3.85;;
51475;SDS011;37554;50.362;7.568;2023-03-01T04:25:22;7.22;;;4.60;;
51475;SDS011;37554;50.362;7.568;2023-03-01T04:27:48;4.68;;;3.92;;
51475;SDS011;37554;50.362;7.568;2023-03-01T04:30:14;6.75;;;4.55;;
51475;SDS011;37554;50.362;7.568;2023-03-01T04:32:39;5.43;;;3.95;;
51475;SDS011;37554;50.362;7.568;2023-03-01T04:35:05;5.00;;;4.30;;
51475;SDS011;37554;50.362;7.568;2023-03-01T04:37:31;7.95;;;4.40;;
51475;SDS011;37554;50.362;7.568;2023-03-01T04:39:57;7.68;;;4.53;;
51475;SDS011;37554;50.362;7.568;2023-03-01T04:42:22;5.63;;;4.32;;
51475;SDS011;37554;50.362;7.568;2023-03-01T04:44:48;6.60;;;5.47;;
51475;SDS011;37554;50.362;7.568;2023-03-01T04:47:16;6.68;;;5.65;;
51475;SDS011;37554;50.362;7.568;2023-03-01T04:49:41;7.35;;;5.97;;
51475;SDS011;37554;50.362;7.568;2023-03-01T04:52:07;8.80;;;6.30;;
51475;SDS011;37554;50.362;7.568;2023-03-01T04:54:34;10.15;;;6.05;;
51475;SDS011;37554;50.362;7.568;2023-03-01T04:57:01;6.70;;;5.30;;
51475;SDS011;37554;50.362;7.568;2023-03-01T04:59:27;8.63;;;5.50;;
51475;SDS011;37554;50.362;7.568;2023-03-01T05:01:54;9.52;;;5.43;;
51475;SDS011;37554;50.362;7.568;2023-03-01T05:04:21;7.05;;;5.25;;
51475;SDS011;37554;50.362;7.568;2023-03-01T05:06:47;7.53;;;5.70;;
51475;SDS011;37554;50.362;7.568;2023-03-01T05:09:12;7.35;;;5.32;;
51475;SDS011;37554;50.362;7.568;2023-03-01T05:11:38;6.50;;;5.25;;
51475;SDS011;37554;50.362;7.568;2023-03-01T05:14:04;6.47;;;5.47;;
51475;SDS011;37554;50.362;7.568;2023-03-01T05:16:31;13.55;;;5.35;;
51475;SDS011;37554;50.362;7.568;2023-03-01T05:18:57;7.72;;;5.10;;
51475;SDS011;37554;50.362;7.568;2023-03-01T05:21:23;7.00;;;5.28;;
51475;SDS011;37554;50.362;7.568;2023-03-01T05:23:49;8.30;;;4.45;;
51475;SDS011;37554;50.362;7.568;2023-03-01T05:26:16;8.15;;;5.35;;
51475;SDS011;37554;50.362;7.568;2023-03-01T05:28:43;8.90;;;5.32;;
51475;SDS011;37554;50.362;7.568;2023-03-01T05:31:09;6.97;;;4.78;;
51475;SDS011;37554;50.362;7.568;2023-03-01T05:33:38;5.70;;;5.10;;
51475;SDS011;37554;50.362;7.568;2023-03-01T05:36:05;6.53;;;4.93;;
51475;SDS011;37554;50.362;7.568;2023-03-01T05:38:34;10.13;;;4.63;;
51475;SDS011;37554;50.362;7.568;2023-03-01T05:41:01;7.13;;;4.90;;
51475;SDS011;37554;50.362;7.568;2023-03-01T05:43:29;6.63;;;5.18;;
51475;SDS011;37554;50.362;7.568;2023-03-01T05:45:57;5.95;;;5.18;;
51475;SDS011;37554;50.362;7.568;2023-03-01T05:48:23;6.40;;;4.45;;
51475;SDS011;37554;50.362;7.568;2023-03-01T05:50:49;5.93;;;4.72;;
51475;SDS011;37554;50.362;7.568;2023-03-01T05:53:16;5.63;;;4.65;;
51475;SDS011;37554;50.362;7.568;2023-03-01T05:55:44;7.78;;;5.25;;
51475;SDS011;37554;50.362;7.568;2023-03-01T05:58:13;5.28;;;4.60;;
51475;SDS011;37554;50.362;7.568;2023-03-01T06:00:40;5.05;;;4.53;;
51475;SDS011;37554;50.362;7.568;2023-03-01T06:03:08;7.65;;;4.80;;
51475;SDS011;37554;50.362;7.568;2023-03-01T06:05:36;7.93;;;4.80;;
51475;SDS011;37554;50.362;7.568;2023-03-01T06:08:02;6.50;;;4.80;;
51475;SDS011;37554;50.362;7.568;2023-03-01T06:10:28;5.60;;;4.60;;
51475;SDS011;37554;50.362;7.568;2023-03-01T06:12:54;8.25;;;4.93;;
51475;SDS011;37554;50.362;7.568;2023-03-01T06:15:21;7.20;;;4.95;;
51475;SDS011;37554;50.362;7.568;2023-03-01T06:17:47;6.95;;;5.05;;
51475;SDS011;37554;50.362;7.568;2023-03-01T06:20:14;7.35;;;4.82;;
51475;SDS011;37554;50.362;7.568;2023-03-01T06:22:45;6.15;;;4.82;;
51475;SDS011;37554;50.362;7.568;2023-03-01T06:25:12;6.05;;;5.25;;
51475;SDS011;37554;50.362;7.568;2023-03-01T06:27:39;5.63;;;5.00;;
51475;SDS011;37554;50.362;7.568;2023-03-01T06:30:06;6.15;;;5.07;;
51475;SDS011;37554;50.362;7.568;2023-03-01T06:32:32;8.13;;;4.82;;
51475;SDS011;37554;50.362;7.568;2023-03-01T06:34:58;6.40;;;5.00;;
51475;SDS011;37554;50.362;7.568;2023-03-01T06:37:24;7.35;;;5.05;;
51475;SDS011;37554;50.362;7.568;2023-03-01T06:39:50;6.07;;;5.25;;
51475;SDS011;37554;50.362;7.568;2023-03-01T06:42:16;6.28;;;5.20;;
51475;SDS011;37554;50.362;7.568;2023-03-01T06:44:42;6.20;;;4.93;;
51475;SDS011;37554;50.362;7.568;2023-03-01T06:47:08;10.63;;;7.15;;
51475;SDS011;37554;50.362;7.568;2023-03-01T06:49:34;11.93;;;8.55;;
51475;SDS011;37554;50.362;7.568;2023-03-01T06:52:00;9.80;;;7.25;;
51475;SDS011;37554;50.362;7.568;2023-03-01T06:54:26;8.43;;;6.80;;
51475;SDS011;37554;50.362;7.568;2023-03-01T06:56:52;7.93;;;6.45;;
51475;SDS011;37554;50.362;7.568;2023-03-01T06:59:17;7.45;;;6.20;;
51475;SDS011;37554;50.362;7.568;2023-03-01T07:01:43;8.15;;;6.40;;
51475;SDS011;37554;50.362;7.568;2023-03-01T07:04:09;10.30;;;6.43;;
51475;SDS011;37554;50.362;7.568;2023-03-01T07:06:36;7.00;;;5.50;;
51475;SDS011;37554;50.362;7.568;2023-03-01T07:09:11;6.20;;;5.40;;
51475;SDS011;37554;50.362;7.568;2023-03-01T07:11:36;8.07;;;5.45;;
51475;SDS011;37554;50.362;7.568;2023-03-01T07:14:02;7.55;;;5.93;;
51475;SDS011;37554;50.362;7.568;2023-03-01T07:16:28;6.07;;;5.22;;
51475;SDS011;37554;50.362;7.568;2023-03-01T07:18:53;6.07;;;5.40;;
51475;SDS011;37554;50.362;7.568;2023-03-01T07:21:19;7.07;;;5.50;;
51475;SDS011;37554;50.362;7.568;2023-03-01T07:23:47;7.55;;;5.28;;
51475;SDS011;37554;50.362;7.568;2023-03-01T07:26:13;10.45;;;5.80;;
51475;SDS011;37554;50.362;7.568;2023-03-01T07:28:38;7.60;;;5.85;;
51475;SDS011;37554;50.362;7.568;2023-03-01T07:31:04;9.70;;;5.43;;
51475;SDS011;37554;50.362;7.568;2023-03-01T07:33:31;6.57;;;5.35;;
51475;SDS011;37554;50.362;7.568;2023-03-01T07:36:00;7.85;;;4.95;;
51475;SDS011;37554;50.362;7.568;2023-03-01T07:38:28;6.30;;;5.15;;
51475;SDS011;37554;50.362;7.568;2023-03-01T07:40:57;7.85;;;5.78;;
51475;SDS011;37554;50.362;7.568;2023-03-01T07:43:24;7.90;;;5.40;;
51475;SDS011;37554;50.362;7.568;2023-03-01T07:45:50;8.18;;;5.75;;
51475;SDS011;37554;50.362;7.568;2023-03-01T07:48:16;6.38;;;5.60;;
51475;SDS011;37554;50.362;7.568;2023-03-01T07:50:42;7.22;;;5.68;;
51475;SDS011;37554;50.362;7.568;2023-03-01T07:53:08;11.95;;;6.07;;
51475;SDS011;37554;50.362;7.568;2023-03-01T07:55:34;8.32;;;5.72;;
51475;SDS011;37554;50.362;7.568;2023-03-01T07:58:00;7.07;;;5.78;;
51475;SDS011;37554;50.362;7.568;2023-03-01T08:00:26;9.27;;;6.50;;
51475;SDS011;37554;50.362;7.568;2023-03-01T08:02:54;6.57;;;5.45;;
51475;SDS011;37554;50.362;7.568;2023-03-01T08:05:23;8.57;;;5.63;;
51475;SDS011;37554;50.362;7.568;2023-03-01T08:07:49;6.15;;;5.53;;
51475;SDS011;37554;50.362;7.568;2023-03-01T08:10:15;10.48;;;5.88;;
51475;SDS011;37554;50.362;7.568;2023-03-01T08:12:41;9.88;;;5.90;;
51475;SDS011;37554;50.362;7.568;2023-03-01T08:15:10;8.75;;;6.03;;
51475;SDS011;37554;50.362;7.568;2023-03-01T08:17:36;8.35;;;5.50;;
51475;SDS011;37554;50.362;7.568;2023-03-01T08:20:02;7.13;;;6.40;;
51475;SDS011;37554;50.362;7.568;2023-03-01T08:22:31;6.28;;;5.63;;
51475;SDS011;37554;50.362;7.568;2023-03-01T08:24:56;7.95;;;5.95;;
51475;SDS011;37554;50.362;7.568;2023-03-01T08:27:22;8.52;;;6.82;;
51475;SDS011;37554;50.362;7.568;2023-03-01T08:29:48;8.25;;;6.68;;
51475;SDS011;37554;50.362;7.568;2023-03-01T08:32:14;7.63;;;6.13;;
51475;SDS011;37554;50.362;7.568;2023-03-01T08:34:39;11.05;;;6.20;;
51475;SDS011;37554;50.362;7.568;2023-03-01T08:37:07;10.77;;;6.65;;
51475;SDS011;37554;50.362;7.568;2023-03-01T08:39:39;8.23;;;6.22;;
51475;SDS011;37554;50.362;7.568;2023-03-01T08:42:08;11.38;;;5.63;;
51475;SDS011;37554;50.362;7.568;2023-03-01T08:44:36;9.13;;;6.57;;
51475;SDS011;37554;50.362;7.568;2023-03-01T08:47:05;8.02;;;6.53;;
51475;SDS011;37554;50.362;7.568;2023-03-01T08:49:51;14.77;;;6.57;;
51475;SDS011;37554;50.362;7.568;2023-03-01T08:52:17;9.88;;;6.45;;
51475;SDS011;37554;50.362;7.568;2023-03-01T08:54:44;8.35;;;6.63;;
51475;SDS011;37554;50.362;7.568;2023-03-01T08:57:10;9.48;;;7.18;;
51475;SDS011;37554;50.362;7.568;2023-03-01T08:59:35;11.38;;;6.57;;
51475;SDS011;37554;50.362;7.568;2023-03-01T09:02:03;8.23;;;5.63;;
51475;SDS011;37554;50.362;7.568;2023-03-01T09:04:29;10.50;;;6.22;;
51475;SDS011;37554;50.362;7.568;2023-03-01T09:06:55;6.15;;;5.43;;
51475;SDS011;37554;50.362;7.568;2023-03-01T09:09:26;7.80;;;5.65;;
51475;SDS011;37554;50.362;7.568;2023-03-01T09:11:52;6.80;;;5.75;;
51475;SDS011;37554;50.362;7.568;2023-03-01T09:14:18;6.65;;;5.72;;
51475;SDS011;37554;50.362;7.568;2023-03-01T09:16:43;9.40;;;5.93;;
51475;SDS011;37554;50.362;7.568;2023-03-01T09:19:10;6.20;;;4.78;;
51475;SDS011;37554;50.362;7.568;2023-03-01T09:21:36;6.10;;;5.40;;
51475;SDS011;37554;50.362;7.568;2023-03-01T09:24:02;6.18;;;5.25;;
51475;SDS011;37554;50.362;7.568;2023-03-01T09:26:28;8.40;;;5.53;;
51475;SDS011;37554;50.362;7.568;2023-03-01T09:28:54;7.03;;;4.90;;
51475;SDS011;37554;50.362;7.568;2023-03-01T09:31:21;7.68;;;5.28;;
51475;SDS011;37554;50.362;7.568;2023-03-01T09:33:49;7.03;;;4.85;;
51475;SDS011;37554;50.362;7.568;2023-03-01T09:36:17;6.68;;;5.05;;
51475;SDS011;37554;50.362;7.568;2023-03-01T09:38:45;5.57;;;4.53;;
51475;SDS011;37554;50.362;7.568;2023-03-01T09:41:19;6.28;;;5.13;;
51475;SDS011;37554;50.362;7.568;2023-03-01T09:43:51;5.60;;;4.80;;
51475;SDS011;37554;50.362;7.568;2023-03-01T09:46:23;6.07;;;4.40;;
51475;SDS011;37554;50.362;7.568;2023-03-01T09:48:55;6.35;;;4.57;;
51475;SDS011;37554;50.362;7.568;2023-03-01T09:51:30;5.15;;;4.15;;
51475;SDS011;37554;50.362;7.568;2023-03-01T09:53:58;7.90;;;4.57;;
51475;SDS011;37554;50.362;7.568;2023-03-01T09:56:37;6.13;;;4.30;;
51475;SDS011;37554;50.362;7.568;2023-03-01T10:01:50;5.35;;;4.28;;
51475;SDS011;37554;50.362;7.568;2023-03-01T10:08:05;5.18;;;4.15;;
51475;SDS011;37554;50.362;7.568;2023-03-01T10:10:50;5.90;;;4.40;;
51475;SDS011;37554;50.362;7.568;2023-03-01T10:15:50;6.90;;;5.32;;
51475;SDS011;37554;50.362;7.568;2023-03-01T10:18:30;6.88;;;4.78;;
51475;SDS011;37554;50.362;7.568;2023-03-01T10:20:59;5.45;;;4.15;;
51475;SDS011;37554;50.362;7.568;2023-03-01T10:23:27;5.03;;;3.88;;
51475;SDS011;37554;50.362;7.568;2023-03-01T10:29:08;9.55;;;4.20;;
51475;SDS011;37554;50.362;7.568;2023-03-01T10:31:46;4.97;;;3.85;;
51475;SDS011;37554;50.362;7.568;2023-03-01T10:36:47;7.68;;;4.07;;
51475;SDS011;37554;50.362;7.568;2023-03-01T10:39:15;7.15;;;4.10;;
51475;SDS011;37554;50.362;7.568;2023-03-01T10:47:16;5.53;;;3.47;;
51475;SDS011;37554;50.362;7.568;2023-03-01T10:49:54;5.43;;;3.75;;
51475;SDS011;37554;50.362;7.568;2023-03-01T10:52:30;5.93;;;3.33;;
51475;SDS011;37554;50.362;7.568;2023-03-01T10:55:43;7.93;;;3.58;;
51475;SDS011;37554;50.362;7.568;2023-03-01T11:00:56;5.70;;;3.60;;
51475;SDS011;37554;50.362;7.568;2023-03-01T11:03:26;4.60;;;3.67;;
51475;SDS011;37554;50.362;7.568;2023-03-01T11:05:55;4.82;;;3.80;;
51475;SDS011;37554;50.362;7.568;2023-03-01T11:08:30;6.70;;;3.75;;
51475;SDS011;37554;50.362;7.568;2023-03-01T11:14:03;13.07;;;4.68;;
51475;SDS011;37554;50.362;7.568;2023-03-01T11:16:45;4.88;;;4.35;;
51475;SDS011;37554;50.362;7.568;2023-03-01T11:19:15;6.03;;;4.70;;
51475;SDS011;37554;50.362;7.568;2023-03-01T11:22:06;7.55;;;5.05;;
51475;SDS011;37554;50.362;7.568;2023-03-01T11:24:37;7.50;;;4.85;;
51475;SDS011;37554;50.362;7.568;2023-03-01T11:27:13;6.57;;;4.78;;
51475;SDS011;37554;50.362;7.568;2023-03-01T11:29:57;5.45;;;4.95;;
51475;SDS011;37554;50.362;7.568;2023-03-01T11:32:42;6.80;;;5.35;;
51475;SDS011;37554;50.362;7.568;2023-03-01T11:35:23;6.57;;;4.95;;
51475;SDS011;37554;50.362;7.568;2023-03-01T11:40:44;5.05;;;4.60;;
51475;SDS011;37554;50.362;7.568;2023-03-01T11:56:50;7.30;;;5.32;;
51475;SDS011;37554;50.362;7.568;2023-03-01T12:07:51;5.55;;;5.05;;
51475;SDS011;37554;50.362;7.568;2023-03-01T12:10:29;6.15;;;4.55;;
51475;SDS011;37554;50.362;7.568;2023-03-01T12:13:13;5.22;;;4.70;;
51475;SDS011;37554;50.362;7.568;2023-03-01T12:15:53;7.10;;;4.95;;
51475;SDS011;37554;50.362;7.568;2023-03-01T12:27:30;7.47;;;5.05;;
51475;SDS011;37554;50.362;7.568;2023-03-01T12:32:28;5.63;;;4.45;;
51475;SDS011;37554;50.362;7.568;2023-03-01T12:41:28;4.97;;;4.40;;
51475;SDS011;37554;50.362;7.568;2023-03-01T12:44:11;6.20;;;4.07;;
51475;SDS011;37554;50.362;7.568;2023-03-01T12:49:30;8.07;;;4.43;;
51475;SDS011;37554;50.362;7.568;2023-03-01T12:52:07;4.82;;;3.95;;
51475;SDS011;37554;50.362;7.568;2023-03-01T12:54:41;6.50;;;4.00;;
51475;SDS011;37554;50.362;7.568;2023-03-01T13:00:05;4.43;;;4.03;;
51475;SDS011;37554;50.362;7.568;2023-03-01T13:03:12;4.82;;;4.40;;
51475;SDS011;37554;50.362;7.568;2023-03-01T13:11:23;4.28;;;3.97;;
51475;SDS011;37554;50.362;7.568;2023-03-01T13:13:49;5.20;;;4.70;;
51475;SDS011;37554;50.362;7.568;2023-03-01T13:16:21;5.13;;;4.53;;
51475;SDS011;37554;50.362;7.568;2023-03-01T13:21:37;6.15;;;4.00;;
51475;SDS011;37554;50.362;7.568;2023-03-01T13:24:03;4.03;;;3.55;;
51475;SDS011;37554;50.362;7.568;2023-03-01T13:26:28;5.60;;;3.42;;
51475;SDS011;37554;50.362;7.568;2023-03-01T13:28:54;3.92;;;3.63;;
51475;SDS011;37554;50.362;7.568;2023-03-01T13:33:54;4.47;;;3.22;;
51475;SDS011;37554;50.362;7.568;2023-03-01T13:39:00;8.90;;;3.50;;
51475;SDS011;37554;50.362;7.568;2023-03-01T13:46:46;3.25;;;2.95;;
51475;SDS011;37554;50.362;7.568;2023-03-01T13:49:14;5.03;;;3.25;;
51475;SDS011;37554;50.362;7.568;2023-03-01T13:51:45;4.15;;;3.10;;
51475;SDS011;37554;50.362;7.568;2023-03-01T13:54:12;3.47;;;3.00;;
51475;SDS011;37554;50.362;7.568;2023-03-01T13:56:40;5.18;;;2.70;;
51475;SDS011;37554;50.362;7.568;2023-03-01T13:59:13;3.50;;;2.90;;
51475;SDS011;37554;50.362;7.568;2023-03-01T14:01:43;4.22;;;2.75;;
51475;SDS011;37554;50.362;7.568;2023-03-01T14:07:12;3.17;;;2.90;;
51475;SDS011;37554;50.362;7.568;2023-03-01T14:09:43;3.72;;;2.75;;
51475;SDS011;37554;50.362;7.568;2023-03-01T14:15:26;3.00;;;2.67;;
51475;SDS011;37554;50.362;7.568;2023-03-01T14:20:57;3.40;;;2.80;;
51475;SDS011;37554;50.362;7.568;2023-03-01T14:23:24;3.03;;;2.20;;
51475;SDS011;37554;50.362;7.568;2023-03-01T14:25:53;8.15;;;3.75;;
51475;SDS011;37554;50.362;7.568;2023-03-01T14:28:24;6.22;;;2.97;;
51475;SDS011;37554;50.362;7.568;2023-03-01T14:30:52;4.90;;;3.03;;
51475;SDS011;37554;50.362;7.568;2023-03-01T14:35:54;4.20;;;2.47;;
51475;SDS011;37554;50.362;7.568;2023-03-01T14:38:22;4.78;;;2.83;;
51475;SDS011;37554;50.362;7.568;2023-03-01T14:40:54;6.88;;;2.72;;
51475;SDS011;37554;50.362;7.568;2023-03-01T14:43:24;6.78;;;2.80;;
51475;SDS011;37554;50.362;7.568;2023-03-01T14:45:53;5.85;;;2.70;;
51475;SDS011;37554;50.362;7.568;2023-03-01T14:48:20;4.57;;;2.80;;
51475;SDS011;37554;50.362;7.568;2023-03-01T14:50:46;4.88;;;2.55;;
51475;SDS011;37554;50.362;7.568;2023-03-01T14:53:16;5.13;;;2.58;;
51475;SDS011;37554;50.362;7.568;2023-03-01T14:55:54;3.63;;;2.50;;
51475;SDS011;37554;50.362;7.568;2023-03-01T14:58:23;3.28;;;2.22;;
51475;SDS011;37554;50.362;7.568;2023-03-01T15:00:52;3.08;;;2.13;;
51475;SDS011;37554;50.362;7.568;2023-03-01T15:03:25;5.35;;;2.50;;
51475;SDS011;37554;50.362;7.568;2023-03-01T15:08:53;4.32;;;2.42;;
51475;SDS011;37554;50.362;7.568;2023-03-01T15:11:21;4.75;;;2.80;;
51475;SDS011;37554;50.362;7.568;2023-03-01T15:13:58;4.05;;;2.20;;
51475;SDS011;37554;50.362;7.568;2023-03-01T15:18:58;2.80;;;2.10;;
51475;SDS011;37554;50.362;7.568;2023-03-01T15:21:33;5.22;;;2.40;;
51475;SDS011;37554;50.362;7.568;2023-03-01T15:24:08;5.60;;;2.20;;
51475;SDS011;37554;50.362;7.568;2023-03-01T15:27:12;3.00;;;2.30;;
51475;SDS011;37554;50.362;7.568;2023-03-01T15:29:40;3.15;;;2.30;;
51475;SDS011;37554;50.362;7.568;2023-03-01T15:32:48;3.88;;;2.35;;
51475;SDS011;37554;50.362;7.568;2023-03-01T15:44:17;4.22;;;2.38;;
51475;SDS011;37554;50.362;7.568;2023-03-01T15:46:54;2.90;;;2.60;;
51475;SDS011;37554;50.362;7.568;2023-03-01T15:49:25;3.17;;;2.72;;
51475;SDS011;37554;50.362;7.568;2023-03-01T15:52:00;3.53;;;2.50;;
51475;SDS011;37554;50.362;7.568;2023-03-01T15:54:26;4.63;;;2.50;;
51475;SDS011;37554;50.362;7.568;2023-03-01T15:56:53;2.65;;;2.42;;
51475;SDS011;37554;50.362;7.568;2023-03-01T15:59:19;6.40;;;2.30;;
51475;SDS011;37554;50.362;7.568;2023-03-01T16:01:45;2.83;;;2.47;;
51475;SDS011;37554;50.362;7.568;2023-03-01T16:04:14;2.47;;;2.28;;
51475;SDS011;37554;50.362;7.568;2023-03-01T16:06:51;3.80;;;2.50;;
51475;SDS011;37554;50.362;7.568;2023-03-01T16:09:22;4.88;;;2.58;;
51475;SDS011;37554;50.362;7.568;2023-03-01T16:11:48;2.78;;;2.50;;
51475;SDS011;37554;50.362;7.568;2023-03-01T16:14:15;4.50;;;2.55;;
51475;SDS011;37554;50.362;7.568;2023-03-01T16:16:41;4.32;;;2.30;;
51475;SDS011;37554;50.362;7.568;2023-03-01T16:19:07;3.78;;;2.50;;
51475;SDS011;37554;50.362;7.568;2023-03-01T16:21:33;3.78;;;2.35;;
51475;SDS011;37554;50.362;7.568;2023-03-01T16:23:58;2.88;;;2.45;;
51475;SDS011;37554;50.362;7.568;2023-03-01T16:26:24;4.35;;;2.00;;
51475;SDS011;37554;50.362;7.568;2023-03-01T16:28:49;2.72;;;1.92;;
51475;SDS011;37554;50.362;7.568;2023-03-01T16:31:19;5.25;;;1.92;;
51475;SDS011;37554;50.362;7.568;2023-03-01T16:33:45;4.70;;;2.65;;
51475;SDS011;37554;50.362;7.568;2023-03-01T16:36:15;7.90;;;2.28;;
51475;SDS011;37554;50.362;7.568;2023-03-01T16:38:43;5.20;;;2.15;;
51475;SDS011;37554;50.362;7.568;2023-03-01T16:41:13;3.35;;;2.22;;
51475;SDS011;37554;50.362;7.568;2023-03-01T16:43:40;6.23;;;2.10;;
51475;SDS011;37554;50.362;7.568;2023-03-01T16:46:13;2.63;;;2.15;;
51475;SDS011;37554;50.362;7.568;2023-03-01T16:48:41;3.92;;;2.50;;
51475;SDS011;37554;50.362;7.568;2023-03-01T16:51:07;4.10;;;2.53;;
51475;SDS011;37554;50.362;7.568;2023-03-01T16:53:33;2.78;;;2.30;;
51475;SDS011;37554;50.362;7.568;2023-03-01T16:56:02;2.63;;;2.25;;
51475;SDS011;37554;50.362;7.568;2023-03-01T16:58:29;3.45;;;1.88;;
51475;SDS011;37554;50.362;7.568;2023-03-01T17:00:55;6.38;;;2.20;;
51475;SDS011;37554;50.362;7.568;2023-03-01T17:03:21;3.78;;;2.10;;
51475;SDS011;37554;50.362;7.568;2023-03-01T17:05:49;2.42;;;2.05;;
51475;SDS011;37554;50.362;7.568;2023-03-01T17:08:15;2.92;;;1.95;;